Delhi, LA

12:30 AM CDT on September 15, 2014 (GMT -0500)
Hardy-Anders-Adams County | Change Station
CLOSE
Current Station
Airport
Location: Natchez,
Elevation: 272 ft
Nearby Weather Stations

Elev 272 ft 31.62 °N, 91.30 °W | Updated 15 minutes ago

Clear
Clear
70 °F
Feels Like 70 °F
N
0
Wind Variable Wind from North

Today
High -- | Low -- °F
--% Chance of Precip.
Yesterday
High -- | Low -- °F
Precip. -- in
6:49 AM 7:12 PM
Waning Gibbous, 59% visible
Pressure 30.14 in
Visibility 8.0 miles
Clouds Clear
Dew Point 66 °F
Humidity 88%
Rainfall 0.00 in
Snow Depth Not available.
UV 0 out of 12
Pollen 9.60 out of 12
Air Quality Not available.
Flu Activity Not available.
METAR KHEZ 150515Z AUTO 00000KT 8SM CLR 21/19 A3014 RMK AO1

More Conditions Fewer Conditions

Pressure 30.14 in
Visibility 8.0 miles
Clouds Clear
Dew Point 66 °F
Humidity 88%
Rainfall 0.00 in
Snow Depth Not available.
UV 0 out of 12
Pollen 9.60 out of 12
Air Quality Not available.
Flu Activity Not available.
METAR KHEZ 150515Z AUTO 00000KT 8SM CLR 21/19 A3014 RMK AO1

More Conditions Fewer Conditions

10-Day Weather Forecast

Almanac

Astronomy

Sep. 15, 2014 Rise Set
Actual Time 6:49 AM CDT 7:12 PM CDT
Civil Twilight 6:25 AM CDT 7:36 PM CDT
Nautical Twilight 5:56 AM CDT 8:05 PM CDT
Astronomical Twilight 5:27 AM CDT 8:34 PM CDT
Moon No Moon Rise 1:30 PM CDT
Length of Visible Light 13h 11m
Length of Day
12h 22m
Tomorrow will be 1m 58s shorter.
Waning Gibbous, 59% of the Moon is Illuminated
Today
Waning Gibbous
Sep 15
Last Quarter
Sep 24
New
Oct 1
First Quarter
Oct 8
Full

Today's Extremes

State Highs State Lows

Community

WunderPhotos

Upload Photos

1,753,414 photos uploaded!

Nearby

Snow Depth

Station Depth Elevation
No new snow has been reported.

Earthquake Activity

City Distance Mag. Time & Date
No recent earthquake activity has been reported nearby.
Minimum magnitude displayed is 2.5.

Coastal Water Temperatures

Place Temperature
No Stations Reporting

Nearby Weather Stations